createdAt,value
2019-02-24T00:01:19.241Z,4.84
2019-02-24T00:03:49.607Z,4.81
2019-02-24T00:06:19.981Z,4.80
2019-02-24T00:08:54.981Z,4.77
2019-02-24T00:11:31.399Z,4.75
2019-02-24T00:14:05.426Z,4.74
2019-02-24T00:16:36.513Z,4.73
2019-02-24T00:19:13.966Z,4.73
2019-02-24T00:21:44.452Z,4.72
2019-02-24T00:24:25.962Z,4.75
2019-02-24T00:26:59.700Z,4.74
2019-02-24T00:29:32.540Z,4.73
2019-02-24T00:32:06.025Z,4.70
2019-02-24T00:34:36.536Z,4.69
2019-02-24T00:37:06.898Z,4.69
2019-02-24T00:39:39.984Z,4.62
2019-02-24T00:42:13.205Z,4.52
2019-02-24T00:44:50.374Z,4.45
2019-02-24T00:47:22.875Z,4.40
2019-02-24T00:49:55.565Z,4.42
2019-02-24T00:52:26.058Z,4.43
2019-02-24T00:54:58.248Z,4.42
2019-02-24T00:57:28.876Z,4.42
2019-02-24T01:00:01.456Z,4.41
2019-02-24T01:02:31.824Z,4.37
2019-02-24T01:05:02.702Z,4.36
2019-02-24T01:07:37.395Z,4.36
2019-02-24T01:10:10.638Z,4.38
2019-02-24T01:12:45.780Z,4.39
2019-02-24T01:15:16.525Z,4.38
2019-02-24T01:17:51.713Z,4.39
2019-02-24T01:20:27.783Z,4.40
2019-02-24T01:23:02.044Z,4.41
2019-02-24T01:25:35.161Z,4.40
2019-02-24T01:28:05.586Z,4.38
2019-02-24T01:30:36.560Z,4.35
2019-02-24T01:33:07.088Z,4.35
2019-02-24T01:35:41.072Z,4.40
2019-02-24T01:38:12.739Z,4.45
2019-02-24T01:40:43.568Z,4.46
2019-02-24T01:43:14.413Z,4.47
2019-02-24T01:45:46.351Z,4.45
2019-02-24T01:48:16.763Z,4.42
2019-02-24T01:50:49.165Z,4.36
2019-02-24T01:53:19.268Z,4.25
2019-02-24T01:55:52.794Z,4.19
2019-02-24T01:58:23.284Z,4.13
2019-02-24T02:00:53.677Z,4.11
2019-02-24T02:03:24.004Z,4.16
2019-02-24T02:05:54.399Z,4.17
2019-02-24T02:08:29.709Z,4.19
2019-02-24T02:11:00.099Z,4.20
2019-02-24T02:13:30.564Z,4.16
2019-02-24T02:16:00.886Z,4.15
2019-02-24T02:18:31.552Z,4.17
2019-02-24T02:21:02.277Z,4.15
2019-02-24T02:23:32.789Z,4.15
2019-02-24T02:26:03.182Z,4.12
2019-02-24T02:28:33.546Z,4.11
2019-02-24T02:31:06.910Z,4.13
2019-02-24T02:33:37.670Z,4.16
2019-02-24T02:36:08.378Z,4.18
2019-02-24T02:38:41.668Z,4.19
2019-02-24T02:41:12.038Z,4.16
2019-02-24T02:43:42.809Z,4.12
2019-02-24T02:46:13.309Z,4.11
2019-02-24T02:48:43.964Z,4.09
2019-02-24T02:51:14.562Z,4.05
2019-02-24T02:53:45.509Z,3.98
2019-02-24T02:56:19.108Z,3.93
2019-02-24T02:58:54.153Z,3.93
2019-02-24T03:01:22.510Z,3.94
2019-02-24T03:03:52.952Z,3.99
2019-02-24T03:06:42.343Z,4.04
2019-02-24T03:09:13.036Z,4.05
2019-02-24T03:11:43.585Z,4.08
2019-02-24T03:14:14.084Z,4.16
2019-02-24T03:16:44.544Z,4.22
2019-02-24T03:19:19.671Z,4.24
2019-02-24T03:21:50.068Z,4.22
2019-02-24T03:24:20.420Z,4.21
2019-02-24T03:26:50.736Z,4.25
2019-02-24T03:29:23.114Z,4.26
2019-02-24T03:31:55.616Z,4.24
2019-02-24T03:34:27.581Z,4.24
2019-02-24T03:36:58.259Z,4.22
2019-02-24T03:39:28.670Z,4.21
2019-02-24T03:41:59.099Z,4.21
2019-02-24T03:44:29.490Z,4.17
2019-02-24T03:47:00.171Z,4.13
2019-02-24T03:49:31.849Z,4.13
2019-02-24T03:52:02.539Z,4.16
2019-02-24T03:54:32.864Z,4.19
2019-02-24T03:57:03.217Z,4.21
2019-02-24T03:59:33.869Z,4.19
2019-02-24T04:02:04.215Z,4.15
2019-02-24T04:04:34.712Z,4.15
2019-02-24T04:07:11.899Z,4.15
2019-02-24T04:09:44.390Z,4.15
2019-02-24T04:12:14.756Z,4.18
2019-02-24T04:14:45.146Z,4.20
2019-02-24T04:17:15.509Z,4.20
2019-02-24T04:19:45.901Z,4.17
2019-02-24T04:22:16.315Z,4.13
2019-02-24T04:24:56.713Z,4.11
2019-02-24T04:27:27.110Z,4.08
2019-02-24T04:29:57.510Z,4.07
2019-02-24T04:32:29.766Z,4.07
2019-02-24T04:35:00.510Z,4.06
2019-02-24T04:37:31.345Z,4.04
2019-02-24T04:40:02.086Z,4.00
2019-02-24T04:42:32.671Z,3.98
2019-02-24T04:45:03.006Z,3.91
2019-02-24T04:47:33.526Z,3.83
2019-02-24T04:50:03.973Z,3.77
2019-02-24T04:52:34.451Z,3.73
2019-02-24T04:55:05.484Z,3.70
2019-02-24T04:57:35.887Z,3.69
2019-02-24T05:00:07.170Z,3.69
2019-02-24T05:02:37.643Z,3.71
2019-02-24T05:05:08.178Z,3.69
2019-02-24T05:07:38.580Z,3.70
2019-02-24T05:10:08.969Z,3.68
2019-02-24T05:12:39.345Z,3.62
2019-02-24T05:15:09.694Z,3.61
2019-02-24T05:17:40.452Z,3.60
2019-02-24T05:20:11.117Z,3.60
2019-02-24T05:22:41.588Z,3.58
2019-02-24T05:25:12.076Z,3.52
2019-02-24T05:27:42.645Z,3.54
2019-02-24T05:30:13.075Z,3.53
2019-02-24T05:32:45.339Z,3.59
2019-02-24T05:35:18.553Z,3.66
2019-02-24T05:37:49.372Z,3.63
2019-02-24T05:40:19.717Z,3.63
2019-02-24T05:42:50.117Z,3.64
2019-02-24T05:45:22.208Z,3.66
2019-02-24T05:47:52.673Z,3.65
2019-02-24T05:50:23.091Z,3.66
2019-02-24T05:52:53.776Z,3.63
2019-02-24T05:55:27.431Z,3.61
2019-02-24T05:57:57.911Z,3.62
2019-02-24T06:00:28.721Z,3.60
2019-02-24T06:02:59.177Z,3.61
2019-02-24T06:05:29.566Z,3.67
2019-02-24T06:07:59.988Z,3.68
2019-02-24T06:10:30.670Z,3.69
2019-02-24T06:13:01.050Z,3.73
2019-02-24T06:15:32.031Z,3.76
2019-02-24T06:18:02.672Z,3.77
2019-02-24T06:20:33.103Z,3.78
2019-02-24T06:23:03.505Z,3.80
2019-02-24T06:25:33.925Z,3.87
2019-02-24T06:28:04.385Z,3.94
2019-02-24T06:30:35.159Z,3.99
2019-02-24T06:33:05.815Z,4.02
2019-02-24T06:35:36.224Z,4.07
2019-02-24T06:38:09.935Z,4.08
2019-02-24T06:40:40.764Z,4.09
2019-02-24T06:43:12.312Z,4.02
2019-02-24T06:45:43.382Z,4.05
2019-02-24T06:48:14.582Z,4.00
2019-02-24T06:50:55.946Z,4.00
2019-02-24T06:53:27.159Z,4.05
2019-02-24T06:55:57.664Z,4.12
2019-02-24T06:58:30.535Z,4.11
2019-02-24T07:01:01.915Z,4.08
2019-02-24T07:03:32.703Z,4.07
2019-02-24T07:06:06.143Z,4.04
2019-02-24T07:08:36.575Z,4.17
2019-02-24T07:11:07.341Z,4.17
2019-02-24T07:13:38.417Z,4.18
2019-02-24T07:16:08.926Z,4.18
2019-02-24T07:18:39.583Z,4.21
2019-02-24T07:21:10.094Z,4.22
2019-02-24T07:23:41.253Z,4.21
2019-02-24T07:26:11.762Z,4.18
2019-02-24T07:28:42.519Z,4.15
2019-02-24T07:31:12.965Z,4.16
2019-02-24T07:33:43.377Z,4.20
2019-02-24T07:36:14.171Z,4.28
2019-02-24T07:38:44.573Z,4.27
2019-02-24T07:41:14.963Z,4.36
2019-02-24T07:43:45.481Z,4.41
2019-02-24T07:46:15.840Z,4.43
2019-02-24T07:48:46.400Z,4.53
2019-02-24T07:51:16.996Z,4.69
2019-02-24T07:53:47.736Z,4.89
2019-02-24T07:56:18.134Z,4.99
2019-02-24T07:58:49.082Z,5.07
2019-02-24T08:01:19.449Z,5.15
2019-02-24T08:03:49.816Z,5.30
2019-02-24T08:06:25.891Z,5.42
2019-02-24T08:08:56.932Z,5.44
2019-02-24T08:11:29.415Z,5.45
2019-02-24T08:13:59.740Z,5.53
2019-02-24T08:16:31.306Z,5.51
2019-02-24T08:19:02.124Z,5.49
2019-02-24T08:21:32.562Z,5.51
2019-02-24T08:24:03.204Z,5.48
2019-02-24T08:26:33.619Z,5.50
2019-02-24T08:29:03.994Z,5.61
2019-02-24T08:31:34.358Z,5.69
2019-02-24T08:34:04.720Z,5.69
2019-02-24T08:36:38.001Z,5.69
2019-02-24T08:39:08.551Z,5.69
2019-02-24T08:41:39.041Z,5.69
2019-02-24T08:44:09.433Z,5.71
2019-02-24T08:46:39.778Z,5.73
2019-02-24T08:49:10.127Z,5.64
2019-02-24T08:51:40.483Z,5.74
2019-02-24T08:54:11.499Z,5.94
2019-02-24T08:56:43.029Z,6.11
2019-02-24T08:59:13.760Z,6.29
2019-02-24T09:01:44.468Z,6.44
2019-02-24T09:04:14.830Z,6.49
2019-02-24T09:06:45.728Z,6.53
2019-02-24T09:09:16.077Z,6.58
2019-02-24T09:11:46.404Z,6.66
2019-02-24T09:14:16.845Z,6.69
2019-02-24T09:16:47.261Z,6.67
2019-02-24T09:19:22.392Z,6.59
2019-02-24T09:21:52.727Z,6.55
2019-02-24T09:24:28.580Z,6.62
2019-02-24T09:26:59.312Z,6.67
2019-02-24T09:29:29.682Z,6.73
2019-02-24T09:32:00.644Z,6.81
2019-02-24T09:34:31.376Z,6.94
2019-02-24T09:37:01.838Z,6.88
2019-02-24T09:39:33.878Z,6.81
2019-02-24T09:42:04.237Z,6.99
2019-02-24T09:44:34.993Z,7.17
2019-02-24T09:47:05.383Z,7.24
2019-02-24T09:49:35.916Z,7.48
2019-02-24T09:52:06.705Z,7.52
2019-02-24T09:54:37.028Z,7.71
2019-02-24T09:57:07.453Z,7.87
2019-02-24T09:59:38.108Z,7.91
2019-02-24T10:02:11.318Z,7.97
2019-02-24T10:04:41.766Z,8.10
2019-02-24T10:07:12.126Z,8.29
2019-02-24T10:09:43.921Z,8.43
2019-02-24T10:12:14.381Z,8.63
2019-02-24T10:14:44.900Z,8.63
2019-02-24T10:17:15.329Z,8.62
2019-02-24T10:19:45.691Z,8.73
2019-02-24T10:22:16.063Z,8.80
2019-02-24T10:24:46.446Z,8.86
2019-02-24T10:27:29.627Z,8.95
2019-02-24T10:30:00.040Z,9.04
2019-02-24T10:32:34.160Z,9.08
2019-02-24T10:35:04.810Z,9.00
2019-02-24T10:37:35.277Z,9.05
2019-02-24T10:40:07.642Z,9.21
2019-02-24T10:42:40.479Z,9.25
2019-02-24T10:45:17.165Z,9.23
2019-02-24T10:47:47.606Z,9.19
2019-02-24T10:50:18.235Z,9.15
2019-02-24T10:52:48.808Z,9.14
2019-02-24T10:55:19.127Z,9.13
2019-02-24T10:57:49.784Z,9.07
2019-02-24T11:00:20.419Z,8.94
2019-02-24T11:02:50.841Z,8.86
2019-02-24T11:05:22.497Z,8.83
2019-02-24T11:07:53.006Z,8.65
2019-02-24T11:10:23.476Z,8.57
2019-02-24T11:12:53.955Z,8.57
2019-02-24T11:15:26.140Z,9.03
2019-02-24T11:17:56.977Z,9.48
2019-02-24T11:20:27.380Z,9.81
2019-02-24T11:22:58.109Z,10.00
2019-02-24T11:25:30.520Z,10.24
2019-02-24T11:28:00.998Z,10.52
2019-02-24T11:30:31.603Z,10.65
2019-02-24T11:33:05.343Z,10.79
2019-02-24T11:35:37.768Z,10.97
2019-02-24T11:38:08.168Z,11.17
2019-02-24T11:40:38.676Z,11.19
2019-02-24T11:43:09.674Z,11.37
2019-02-24T11:45:41.293Z,11.54
2019-02-24T11:48:19.015Z,11.62
2019-02-24T11:50:51.745Z,11.74
2019-02-24T11:53:28.748Z,11.68
2019-02-24T11:56:06.851Z,11.70
2019-02-24T11:58:36.057Z,11.74
2019-02-24T12:01:08.558Z,11.88
2019-02-24T12:03:39.148Z,11.99
2019-02-24T12:06:18.750Z,12.20
2019-02-24T12:08:49.199Z,12.35
2019-02-24T12:11:21.986Z,12.43
2019-02-24T12:13:52.718Z,12.49
2019-02-24T12:16:31.673Z,12.55
2019-02-24T12:19:03.993Z,12.60
2019-02-24T12:21:36.951Z,12.71
2019-02-24T12:24:07.458Z,13.01
2019-02-24T12:26:37.856Z,13.38
2019-02-24T12:29:08.290Z,14.50
2019-02-24T12:31:38.622Z,14.89
2019-02-24T12:34:11.926Z,14.93
2019-02-24T12:36:45.117Z,14.77
2019-02-24T12:39:15.864Z,14.90
2019-02-24T12:41:51.579Z,15.10
2019-02-24T12:44:25.256Z,15.77
2019-02-24T12:46:55.931Z,15.71
2019-02-24T12:49:27.895Z,15.31
2019-02-24T12:51:58.852Z,14.93
2019-02-24T12:54:29.308Z,14.76
2019-02-24T12:57:04.964Z,15.00
2019-02-24T12:59:35.653Z,15.11
2019-02-24T13:02:06.392Z,15.17
2019-02-24T13:04:41.026Z,14.85
2019-02-24T13:07:12.513Z,14.51
2019-02-24T13:09:43.212Z,14.28
2019-02-24T13:12:14.994Z,14.36
2019-02-24T13:14:51.225Z,14.39
2019-02-24T13:17:29.247Z,14.40
2019-02-24T13:20:10.063Z,14.34
2019-02-24T13:22:41.133Z,14.27
2019-02-24T13:25:17.412Z,14.22
2019-02-24T13:27:50.828Z,14.18
2019-02-24T13:30:21.950Z,14.29
2019-02-24T13:32:52.756Z,14.34
2019-02-24T13:35:23.206Z,14.27
2019-02-24T13:37:53.806Z,14.39
2019-02-24T13:40:24.561Z,14.48
2019-02-24T13:42:55.193Z,14.55
2019-02-24T13:45:26.987Z,14.55
2019-02-24T13:47:57.680Z,14.56
2019-02-24T13:50:28.341Z,14.61
2019-02-24T13:52:58.706Z,14.55
2019-02-24T13:55:36.239Z,14.60
2019-02-24T13:58:08.305Z,14.60
2019-02-24T14:00:38.727Z,14.69
2019-02-24T14:03:09.392Z,14.74
2019-02-24T14:05:39.746Z,14.71
2019-02-24T14:08:11.023Z,14.76
2019-02-24T14:10:41.558Z,14.69
2019-02-24T14:13:12.169Z,14.68
2019-02-24T14:15:42.533Z,14.74
2019-02-24T14:18:13.152Z,14.80
2019-02-24T14:20:43.568Z,14.81
2019-02-24T14:23:16.663Z,14.84
2019-02-24T14:25:47.516Z,14.90
2019-02-24T14:28:17.926Z,14.84
2019-02-24T14:30:55.138Z,14.76
2019-02-24T14:33:28.661Z,14.77
2019-02-24T14:35:59.271Z,14.81
2019-02-24T14:38:29.755Z,14.85
2019-02-24T14:41:01.291Z,14.73
2019-02-24T14:43:31.745Z,14.58
2019-02-24T14:46:02.248Z,14.46
2019-02-24T14:48:41.807Z,14.44
2019-02-24T14:51:12.245Z,14.49
2019-02-24T14:53:42.761Z,14.57
2019-02-24T14:56:13.192Z,14.66
2019-02-24T14:58:43.944Z,14.71
2019-02-24T15:01:14.641Z,14.74
2019-02-24T15:03:45.188Z,14.75
2019-02-24T15:06:15.541Z,14.74
2019-02-24T15:08:46.244Z,14.70
2019-02-24T15:11:25.599Z,14.65
2019-02-24T15:14:09.527Z,14.59
2019-02-24T15:16:40.144Z,14.56
2019-02-24T15:19:10.654Z,14.52
2019-02-24T15:21:41.236Z,14.47
2019-02-24T15:24:11.610Z,14.42
2019-02-24T15:26:42.066Z,14.39
2019-02-24T15:29:12.404Z,14.30
2019-02-24T15:31:42.788Z,14.21
2019-02-24T15:34:13.542Z,14.13
2019-02-24T15:36:44.157Z,14.01
2019-02-24T15:39:15.528Z,13.91
2019-02-24T15:41:46.404Z,13.87
2019-02-24T15:44:16.841Z,13.86
2019-02-24T15:46:53.332Z,13.84
2019-02-24T15:49:23.813Z,13.78
2019-02-24T15:51:54.291Z,13.75
2019-02-24T15:54:29.196Z,13.68
2019-02-24T15:57:01.715Z,13.59
2019-02-24T15:59:36.225Z,13.51
2019-02-24T16:02:16.306Z,13.45
2019-02-24T16:04:57.685Z,13.40
2019-02-24T16:07:48.680Z,13.33
2019-02-24T16:10:22.691Z,13.29
2019-02-24T16:13:00.274Z,13.21
2019-02-24T16:15:30.780Z,13.14
2019-02-24T16:18:01.168Z,13.06
2019-02-24T16:20:31.700Z,13.01
2019-02-24T16:23:03.448Z,12.95
2019-02-24T16:25:33.916Z,12.88
2019-02-24T16:28:04.486Z,12.86
2019-02-24T16:30:35.062Z,12.79
2019-02-24T16:33:10.808Z,12.77
2019-02-24T16:35:40.759Z,12.68
2019-02-24T16:38:11.542Z,12.59
2019-02-24T16:40:41.789Z,12.53
2019-02-24T16:43:12.472Z,12.49
2019-02-24T16:45:42.897Z,12.45
2019-02-24T16:48:13.389Z,12.38
2019-02-24T16:50:43.908Z,12.35
2019-02-24T16:53:15.654Z,12.30
2019-02-24T16:55:46.255Z,12.24
2019-02-24T16:58:17.041Z,12.19
2019-02-24T17:00:47.977Z,12.17
2019-02-24T17:03:21.696Z,12.12
2019-02-24T17:05:52.271Z,12.08
2019-02-24T17:08:25.564Z,12.03
2019-02-24T17:10:56.186Z,12.00
2019-02-24T17:13:27.020Z,11.98
2019-02-24T17:15:57.542Z,11.90
2019-02-24T17:18:28.272Z,11.83
2019-02-24T17:21:02.316Z,11.76
2019-02-24T17:23:33.222Z,11.70
2019-02-24T17:26:05.278Z,11.63
2019-02-24T17:28:37.737Z,11.55
2019-02-24T17:31:17.515Z,11.50
2019-02-24T17:33:48.446Z,11.49
2019-02-24T17:36:20.935Z,11.51
2019-02-24T17:38:51.636Z,11.51
2019-02-24T17:41:21.985Z,11.46
2019-02-24T17:43:52.463Z,11.43
2019-02-24T17:46:27.003Z,11.40
2019-02-24T17:48:57.463Z,11.35
2019-02-24T17:51:27.999Z,11.30
2019-02-24T17:53:58.382Z,11.24
2019-02-24T17:56:29.044Z,11.18
2019-02-24T17:58:59.746Z,11.11
2019-02-24T18:01:36.065Z,11.09
2019-02-24T18:04:05.855Z,11.06
2019-02-24T18:06:36.382Z,11.00
2019-02-24T18:09:10.260Z,10.97
2019-02-24T18:11:41.457Z,10.96
2019-02-24T18:14:11.916Z,10.92
2019-02-24T18:16:42.764Z,10.89
2019-02-24T18:19:15.928Z,10.87
2019-02-24T18:21:48.486Z,10.86
2019-02-24T18:24:18.986Z,10.84
2019-02-24T18:26:49.647Z,10.85
2019-02-24T18:29:23.860Z,10.83
2019-02-24T18:31:54.383Z,10.77
2019-02-24T18:34:24.932Z,10.69
2019-02-24T18:36:55.748Z,10.65
2019-02-24T18:39:26.518Z,10.61
2019-02-24T18:41:57.117Z,10.59
2019-02-24T18:44:27.690Z,10.56
2019-02-24T18:46:58.249Z,10.55
2019-02-24T18:49:33.029Z,10.56
2019-02-24T18:52:05.304Z,10.52
2019-02-24T18:54:35.900Z,10.48
2019-02-24T18:57:08.089Z,10.43
2019-02-24T18:59:38.595Z,10.37
2019-02-24T19:02:09.123Z,10.29
2019-02-24T19:04:39.982Z,10.25
2019-02-24T19:07:10.598Z,10.22
2019-02-24T19:09:41.059Z,10.18
2019-02-24T19:12:11.526Z,10.21
2019-02-24T19:14:42.101Z,10.18
2019-02-24T19:17:12.545Z,10.14
2019-02-24T19:19:43.231Z,10.08
2019-02-24T19:22:13.768Z,10.06
2019-02-24T19:24:44.413Z,10.01
2019-02-24T19:27:23.735Z,10.00
2019-02-24T19:29:55.713Z,9.97
2019-02-24T19:32:32.399Z,10.00
2019-02-24T19:35:18.859Z,10.00
2019-02-24T19:37:53.775Z,9.95
2019-02-24T19:40:26.655Z,9.92
2019-02-24T19:42:59.268Z,9.87
2019-02-24T19:45:29.744Z,9.87
2019-02-24T19:48:00.187Z,9.86
2019-02-24T19:50:43.316Z,9.87
2019-02-24T19:53:14.547Z,9.86
2019-02-24T19:55:47.352Z,9.88
2019-02-24T19:58:19.025Z,9.91
2019-02-24T20:00:59.831Z,9.86
2019-02-24T20:03:32.360Z,9.80
2019-02-24T20:06:06.084Z,9.75
2019-02-24T20:08:42.331Z,9.71
2019-02-24T20:11:13.018Z,9.70
2019-02-24T20:13:52.008Z,9.72
2019-02-24T20:16:31.209Z,9.71
2019-02-24T20:19:08.139Z,9.65
2019-02-24T20:21:39.062Z,9.61
2019-02-24T20:24:09.624Z,9.59
2019-02-24T20:26:45.514Z,9.56
2019-02-24T20:29:15.366Z,9.56
2019-02-24T20:31:46.315Z,9.56
2019-02-24T20:34:25.277Z,9.54
2019-02-24T20:36:51.489Z,9.52
2019-02-24T20:39:24.116Z,9.49
2019-02-24T20:41:54.626Z,9.48
2019-02-24T20:44:25.087Z,9.45
2019-02-24T20:46:55.527Z,9.41
2019-02-24T20:49:30.994Z,9.35
2019-02-24T20:52:04.270Z,9.31
2019-02-24T20:54:37.257Z,9.27
2019-02-24T20:57:08.146Z,9.21
2019-02-24T20:59:42.361Z,9.15
2019-02-24T21:02:13.019Z,9.13
2019-02-24T21:04:46.725Z,9.16
2019-02-24T21:07:17.144Z,9.17
2019-02-24T21:09:47.707Z,9.21
2019-02-24T21:12:18.601Z,9.23
2019-02-24T21:14:49.922Z,9.24
2019-02-24T21:17:21.378Z,9.25
2019-02-24T21:19:51.982Z,9.24
2019-02-24T21:22:23.060Z,9.24
2019-02-24T21:24:53.796Z,9.22
2019-02-24T21:27:24.220Z,9.17
2019-02-24T21:29:54.666Z,9.13
2019-02-24T21:32:27.649Z,9.10
2019-02-24T21:34:58.158Z,9.07
2019-02-24T21:37:39.242Z,9.02
2019-02-24T21:40:10.861Z,9.00
2019-02-24T21:42:46.881Z,8.94
2019-02-24T21:45:19.853Z,8.84
2019-02-24T21:47:51.942Z,8.71
2019-02-24T21:50:22.441Z,8.63
2019-02-24T21:52:55.706Z,8.56
2019-02-24T21:55:26.333Z,8.45
2019-02-24T21:58:04.418Z,8.34
2019-02-24T22:00:34.230Z,8.31
2019-02-24T22:03:10.299Z,8.31
2019-02-24T22:05:51.084Z,8.29
2019-02-24T22:08:19.595Z,8.26
2019-02-24T22:10:52.832Z,8.25
2019-02-24T22:13:23.199Z,8.26
2019-02-24T22:15:54.036Z,8.23
2019-02-24T22:18:32.184Z,8.21
2019-02-24T22:21:08.019Z,8.21
2019-02-24T22:24:30.954Z,8.25
2019-02-24T22:26:44.478Z,8.31
2019-02-24T22:29:16.644Z,8.35
2019-02-24T22:31:46.974Z,8.41
2019-02-24T22:34:38.960Z,8.45
2019-02-24T22:37:10.263Z,8.44
2019-02-24T22:39:40.783Z,8.43
2019-02-24T22:42:11.445Z,8.42
2019-02-24T22:44:43.374Z,8.37
2019-02-24T22:47:16.885Z,8.32
2019-02-24T22:49:47.491Z,8.23
2019-02-24T22:52:18.087Z,8.18
2019-02-24T22:54:50.602Z,8.10
2019-02-24T22:57:20.923Z,7.99
2019-02-24T22:59:53.469Z,7.89
2019-02-24T23:02:24.848Z,7.91
2019-02-24T23:05:06.516Z,7.93
2019-02-24T23:07:38.708Z,7.94
2019-02-24T23:10:11.843Z,7.94
2019-02-24T23:12:42.446Z,7.92
2019-02-24T23:15:16.083Z,7.86
2019-02-24T23:17:49.696Z,7.78
2019-02-24T23:20:20.404Z,7.73
2019-02-24T23:23:00.619Z,7.65
2019-02-24T23:25:31.834Z,7.57
2019-02-24T23:28:04.308Z,7.52
2019-02-24T23:30:35.075Z,7.49
2019-02-24T23:33:11.248Z,7.45
2019-02-24T23:35:46.389Z,7.47
2019-02-24T23:38:18.131Z,7.46
2019-02-24T23:40:50.361Z,7.42
2019-02-24T23:43:23.424Z,7.43
2019-02-24T23:45:54.022Z,7.45
2019-02-24T23:48:24.595Z,7.50
2019-02-24T23:50:56.740Z,7.51
2019-02-24T23:53:27.786Z,7.48
2019-02-24T23:55:58.455Z,7.45
2019-02-24T23:58:30.706Z,7.45
